createdAt,value
2022-12-04T00:00:25.237Z,0.40
2022-12-04T00:02:51.926Z,0.40
2022-12-04T00:05:18.595Z,0.40
2022-12-04T00:07:45.357Z,0.40
2022-12-04T00:10:12.132Z,0.40
2022-12-04T00:12:38.824Z,0.40
2022-12-04T00:17:52.407Z,0.40
2022-12-04T00:20:19.872Z,0.40
2022-12-04T00:22:46.498Z,0.40
2022-12-04T00:25:13.101Z,0.40
2022-12-04T00:27:39.706Z,0.40
2022-12-04T00:30:06.679Z,0.40
2022-12-04T00:32:33.305Z,0.50
2022-12-04T00:34:59.919Z,0.50
2022-12-04T00:37:26.535Z,0.50
2022-12-04T00:39:53.462Z,0.50
2022-12-04T00:42:20.425Z,0.50
2022-12-04T00:44:47.044Z,0.50
2022-12-04T00:47:13.648Z,0.50
2022-12-04T00:49:40.259Z,0.50
2022-12-04T00:52:06.860Z,0.50
2022-12-04T00:54:33.543Z,0.50
2022-12-04T00:57:00.138Z,0.50
2022-12-04T00:59:26.741Z,0.50
2022-12-04T01:01:53.346Z,0.50
2022-12-04T01:04:20.010Z,0.50
2022-12-04T01:06:47.047Z,0.50
2022-12-04T01:09:13.693Z,0.50
2022-12-04T01:11:40.313Z,0.50
2022-12-04T01:14:07.221Z,0.60
2022-12-04T01:16:35.982Z,0.50
2022-12-04T01:19:03.459Z,0.60
2022-12-04T01:21:30.066Z,0.60
2022-12-04T01:23:57.015Z,0.60
2022-12-04T01:26:23.610Z,0.60
2022-12-04T01:28:50.222Z,0.60
2022-12-04T01:31:18.165Z,0.60
2022-12-04T01:33:44.900Z,0.60
2022-12-04T01:36:13.628Z,0.60
2022-12-04T01:38:40.399Z,0.60
2022-12-04T01:41:08.176Z,0.60
2022-12-04T01:43:35.309Z,0.60
2022-12-04T01:46:02.480Z,0.60
2022-12-04T01:48:31.799Z,0.60
2022-12-04T01:51:04.735Z,0.60
2022-12-04T01:53:31.837Z,0.60
2022-12-04T01:55:58.708Z,0.60
2022-12-04T01:58:28.948Z,0.60
2022-12-04T02:01:00.766Z,0.60
2022-12-04T02:03:29.140Z,0.60
2022-12-04T02:05:55.819Z,0.60
2022-12-04T02:08:22.605Z,0.60
2022-12-04T02:10:57.051Z,0.50
2022-12-04T02:13:31.928Z,0.40
2022-12-04T02:16:06.113Z,0.40
2022-12-04T02:18:32.801Z,0.30
2022-12-04T02:21:09.302Z,0.30
2022-12-04T02:23:49.734Z,0.30
2022-12-04T02:26:28.183Z,0.40
2022-12-04T02:29:02.226Z,0.30
2022-12-04T02:31:34.621Z,0.30
2022-12-04T02:34:06.908Z,0.30
2022-12-04T02:36:36.448Z,0.40
2022-12-04T02:39:18.379Z,0.50
2022-12-04T02:41:49.444Z,0.40
2022-12-04T02:44:25.838Z,0.40
2022-12-04T02:46:54.771Z,0.30
2022-12-04T02:49:25.074Z,0.30
2022-12-04T02:51:53.299Z,0.30
2022-12-04T02:54:26.141Z,0.30
2022-12-04T02:56:53.691Z,0.30
2022-12-04T02:59:24.807Z,0.30
2022-12-04T03:01:54.319Z,0.40
2022-12-04T03:04:22.958Z,0.40
2022-12-04T03:06:52.698Z,0.40
2022-12-04T03:09:28.888Z,0.40
2022-12-04T03:11:57.979Z,0.40
2022-12-04T03:14:27.644Z,0.40
2022-12-04T03:16:55.624Z,0.40
2022-12-04T03:19:27.116Z,0.40
2022-12-04T03:22:02.703Z,0.40
2022-12-04T03:24:30.759Z,0.40
2022-12-04T03:26:57.351Z,0.30
2022-12-04T03:29:31.718Z,0.30
2022-12-04T03:32:10.873Z,0.30
2022-12-04T03:34:48.141Z,0.30
2022-12-04T03:37:16.911Z,0.20
2022-12-04T03:39:51.320Z,0.10
2022-12-04T03:42:19.961Z,0.10
2022-12-04T03:44:49.045Z,0.20
2022-12-04T03:47:28.259Z,0.20
2022-12-04T03:50:01.113Z,0.20
2022-12-04T03:52:39.539Z,0.20
2022-12-04T03:55:17.860Z,0.20
2022-12-04T03:57:45.428Z,0.20
2022-12-04T04:00:14.384Z,0.30
2022-12-04T04:02:49.696Z,0.20
2022-12-04T04:05:17.624Z,0.20
2022-12-04T04:07:47.613Z,0.20
2022-12-04T04:10:16.536Z,0.10
2022-12-04T04:12:46.344Z,0.20
2022-12-04T04:15:33.738Z,0.10
2022-12-04T04:18:20.171Z,0.20
2022-12-04T04:21:11.493Z,0.20
2022-12-04T04:23:59.750Z,0.20
2022-12-04T04:26:27.694Z,0.20
2022-12-04T04:28:54.647Z,0.30
2022-12-04T04:31:31.526Z,0.30
2022-12-04T04:34:09.061Z,0.30
2022-12-04T04:36:41.447Z,0.30
2022-12-04T04:39:16.860Z,0.40
2022-12-04T04:41:53.900Z,0.40
2022-12-04T04:44:26.292Z,0.30
2022-12-04T04:46:56.267Z,0.40
2022-12-04T04:49:25.625Z,0.40
2022-12-04T04:51:53.377Z,0.40
2022-12-04T04:54:20.942Z,0.40
2022-12-04T04:56:47.752Z,0.40
2022-12-04T04:59:14.736Z,0.30
2022-12-04T05:01:43.257Z,0.30
2022-12-04T05:04:10.166Z,0.20
2022-12-04T05:06:36.958Z,0.20
2022-12-04T05:09:03.721Z,0.20
2022-12-04T05:11:30.340Z,0.20
2022-12-04T05:13:56.954Z,0.20
2022-12-04T05:16:23.680Z,0.20
2022-12-04T05:19:09.242Z,0.20
2022-12-04T05:21:35.835Z,0.20
2022-12-04T05:24:02.461Z,0.20
2022-12-04T05:26:29.094Z,0.20
2022-12-04T05:28:55.694Z,0.20
2022-12-04T05:31:22.327Z,0.20
2022-12-04T05:33:48.986Z,0.20
2022-12-04T05:36:15.593Z,0.30
2022-12-04T05:38:42.293Z,0.30
2022-12-04T05:41:08.921Z,0.30
2022-12-04T05:43:35.865Z,0.30
2022-12-04T05:46:03.992Z,0.30
2022-12-04T05:48:30.817Z,0.20
2022-12-04T05:50:57.441Z,0.20
2022-12-04T05:53:24.145Z,0.20
2022-12-04T05:55:55.019Z,0.20
2022-12-04T05:58:21.632Z,0.20
2022-12-04T06:00:48.241Z,0.30
2022-12-04T06:03:14.890Z,0.30
2022-12-04T06:05:41.631Z,0.30
2022-12-04T06:08:08.332Z,0.30
2022-12-04T06:10:35.291Z,0.30
2022-12-04T06:13:01.939Z,0.40
2022-12-04T06:15:28.557Z,0.30
2022-12-04T06:17:55.164Z,0.30
2022-12-04T06:20:21.850Z,0.30
2022-12-04T06:22:48.548Z,0.30
2022-12-04T06:25:15.240Z,0.30
2022-12-04T06:27:43.688Z,0.30
2022-12-04T06:30:10.607Z,0.40
2022-12-04T06:32:37.231Z,0.40
2022-12-04T06:35:04.182Z,0.30
2022-12-04T06:37:30.836Z,0.30
2022-12-04T06:39:57.700Z,0.30
2022-12-04T06:42:24.579Z,0.40
2022-12-04T06:44:51.175Z,0.40
2022-12-04T06:47:17.946Z,0.40
2022-12-04T06:49:46.026Z,0.30
2022-12-04T06:52:12.647Z,0.30
2022-12-04T06:54:39.292Z,0.30
2022-12-04T06:57:05.928Z,0.30
2022-12-04T06:59:33.828Z,0.30
2022-12-04T07:02:00.536Z,0.40
2022-12-04T07:04:27.222Z,0.40
2022-12-04T07:06:54.562Z,0.40
2022-12-04T07:09:21.260Z,0.50
2022-12-04T07:11:47.850Z,0.50
2022-12-04T07:14:14.943Z,0.50
2022-12-04T07:16:42.689Z,0.50
2022-12-04T07:19:10.735Z,0.40
2022-12-04T07:21:37.469Z,0.40
2022-12-04T07:24:04.510Z,0.40
2022-12-04T07:26:31.369Z,0.50
2022-12-04T07:28:58.425Z,0.40
2022-12-04T07:31:25.974Z,0.40
2022-12-04T07:33:53.901Z,0.40
2022-12-04T07:36:21.253Z,0.40
2022-12-04T07:38:48.296Z,0.40
2022-12-04T07:41:15.537Z,0.40
2022-12-04T07:43:42.312Z,0.40
2022-12-04T07:46:13.871Z,0.40
2022-12-04T07:48:40.972Z,0.40
2022-12-04T07:51:18.610Z,0.40
2022-12-04T07:53:45.585Z,0.30
2022-12-04T07:56:12.832Z,0.40
2022-12-04T07:58:40.017Z,0.40
2022-12-04T08:01:20.104Z,0.50
2022-12-04T08:03:48.913Z,0.50
2022-12-04T08:06:17.385Z,0.50
2022-12-04T08:08:44.082Z,0.50
2022-12-04T08:11:12.536Z,0.50
2022-12-04T08:13:39.261Z,0.50
2022-12-04T08:16:06.906Z,0.50
2022-12-04T08:18:33.922Z,0.50
2022-12-04T08:21:08.190Z,0.50
2022-12-04T08:23:35.297Z,0.50
2022-12-04T08:26:02.070Z,0.50
2022-12-04T08:28:29.286Z,0.50
2022-12-04T08:30:56.123Z,0.60
2022-12-04T08:33:22.788Z,0.60
2022-12-04T08:35:49.408Z,0.60
2022-12-04T08:38:16.014Z,0.50
2022-12-04T08:40:42.639Z,0.40
2022-12-04T08:43:09.265Z,0.40
2022-12-04T08:45:35.886Z,0.40
2022-12-04T08:48:02.482Z,0.40
2022-12-04T08:50:29.105Z,0.50
2022-12-04T08:52:55.714Z,0.50
2022-12-04T08:55:22.350Z,0.40
2022-12-04T08:57:50.599Z,0.40
2022-12-04T09:00:17.542Z,0.40
2022-12-04T09:02:44.139Z,0.40
2022-12-04T09:05:10.752Z,0.50
2022-12-04T09:07:37.410Z,0.60
2022-12-04T09:10:04.225Z,0.70
2022-12-04T09:12:30.862Z,0.70
2022-12-04T09:14:57.462Z,0.70
2022-12-04T09:17:24.055Z,0.70
2022-12-04T09:19:50.654Z,0.70
2022-12-04T09:22:17.305Z,0.70
2022-12-04T09:24:43.932Z,0.80
2022-12-04T09:27:14.753Z,0.70
2022-12-04T09:29:41.643Z,0.80
2022-12-04T09:32:08.272Z,0.80
2022-12-04T09:34:34.911Z,0.80
2022-12-04T09:37:01.578Z,0.80
2022-12-04T09:39:28.215Z,0.80
2022-12-04T09:42:13.370Z,0.80
2022-12-04T09:44:43.598Z,0.80
2022-12-04T09:47:10.211Z,0.80
2022-12-04T09:49:39.708Z,0.80
2022-12-04T09:52:22.015Z,0.70
2022-12-04T09:54:49.613Z,0.60
2022-12-04T09:57:20.882Z,0.60
2022-12-04T09:59:47.920Z,0.70
2022-12-04T10:02:33.320Z,0.80
2022-12-04T10:05:00.067Z,0.80
2022-12-04T10:07:31.469Z,0.80
2022-12-04T10:10:07.269Z,0.90
2022-12-04T10:12:46.275Z,0.90
2022-12-04T10:15:36.130Z,0.90
2022-12-04T10:18:15.020Z,0.90
2022-12-04T10:21:01.028Z,0.90
2022-12-04T10:23:46.417Z,0.90
2022-12-04T10:26:17.501Z,1.00
2022-12-04T10:28:55.235Z,1.00
2022-12-04T10:31:23.014Z,1.00
2022-12-04T10:33:49.592Z,1.00
2022-12-04T10:36:18.108Z,1.10
2022-12-04T10:38:47.250Z,1.10
2022-12-04T10:41:34.122Z,1.10
2022-12-04T10:44:00.799Z,1.20
2022-12-04T10:46:28.628Z,1.20
2022-12-04T10:48:59.781Z,1.10
2022-12-04T10:51:27.053Z,1.10
2022-12-04T10:53:55.584Z,1.10
2022-12-04T10:56:24.264Z,1.00
2022-12-04T10:58:58.004Z,1.00
2022-12-04T11:01:25.124Z,1.00
2022-12-04T11:04:07.676Z,1.10
2022-12-04T11:06:34.761Z,1.10
2022-12-04T11:09:02.344Z,1.10
2022-12-04T11:11:30.824Z,1.20
2022-12-04T11:14:04.673Z,1.20
2022-12-04T11:16:39.425Z,1.20
2022-12-04T11:19:38.593Z,1.20
2022-12-04T11:22:11.783Z,1.20
2022-12-04T11:24:40.148Z,1.20
2022-12-04T11:27:07.433Z,1.30
2022-12-04T11:29:40.961Z,1.20
2022-12-04T11:32:08.399Z,1.10
2022-12-04T11:34:37.801Z,1.10
2022-12-04T11:37:04.762Z,1.10
2022-12-04T11:39:40.001Z,1.00
2022-12-04T11:42:16.858Z,1.10
2022-12-04T11:44:51.647Z,1.10
2022-12-04T11:47:19.159Z,1.10
2022-12-04T11:49:45.931Z,1.10
2022-12-04T11:52:28.876Z,1.20
2022-12-04T11:54:55.489Z,1.10
2022-12-04T11:57:28.179Z,1.30
2022-12-04T12:00:01.054Z,1.40
2022-12-04T12:02:40.385Z,1.50
2022-12-04T12:05:25.859Z,1.50
2022-12-04T12:08:11.420Z,1.50
2022-12-04T12:10:58.009Z,1.50
2022-12-04T12:13:27.677Z,1.40
2022-12-04T12:15:57.288Z,1.40
2022-12-04T12:18:27.135Z,1.50
2022-12-04T12:20:57.589Z,1.50
2022-12-04T12:23:24.219Z,1.40
2022-12-04T12:25:56.754Z,1.30
2022-12-04T12:28:43.559Z,1.20
2022-12-04T12:31:13.254Z,1.30
2022-12-04T12:33:42.839Z,1.50
2022-12-04T12:36:10.658Z,1.60
2022-12-04T12:38:40.140Z,1.50
2022-12-04T12:41:11.730Z,1.60
2022-12-04T12:43:39.279Z,1.60
2022-12-04T12:46:05.987Z,1.60
2022-12-04T12:48:40.133Z,1.60
2022-12-04T12:54:22.661Z,1.60
2022-12-04T12:56:55.008Z,1.60
2022-12-04T12:59:24.052Z,1.60
2022-12-04T13:01:59.918Z,1.60
2022-12-04T13:04:35.007Z,1.60
2022-12-04T13:07:16.939Z,1.50
2022-12-04T13:10:04.953Z,1.40
2022-12-04T13:12:37.706Z,1.40
2022-12-04T13:15:04.988Z,1.40
2022-12-04T13:17:33.861Z,1.40
2022-12-04T13:20:08.236Z,1.40
2022-12-04T13:22:39.652Z,1.40
2022-12-04T13:25:15.751Z,1.30
2022-12-04T13:28:01.235Z,1.30
2022-12-04T13:30:36.483Z,1.30
2022-12-04T13:33:06.091Z,1.30
2022-12-04T13:35:51.561Z,1.30
2022-12-04T13:38:24.431Z,1.40
2022-12-04T13:40:52.980Z,1.30
2022-12-04T13:43:23.765Z,1.30
2022-12-04T13:45:51.328Z,1.20
2022-12-04T13:48:50.415Z,1.20
2022-12-04T13:51:35.064Z,1.20
2022-12-04T13:54:03.842Z,1.30
2022-12-04T13:56:30.845Z,1.30
2022-12-04T13:59:02.035Z,1.20
2022-12-04T14:01:31.053Z,1.20
2022-12-04T14:03:59.592Z,1.10
2022-12-04T14:06:32.320Z,0.90
2022-12-04T14:09:01.381Z,1.00
2022-12-04T14:11:29.204Z,1.10
2022-12-04T14:13:57.529Z,1.20
2022-12-04T14:16:26.625Z,1.10
2022-12-04T14:18:54.957Z,1.10
2022-12-04T14:21:21.650Z,1.00
2022-12-04T14:23:48.748Z,1.00
2022-12-04T14:26:21.692Z,0.90
2022-12-04T14:28:48.873Z,0.70
2022-12-04T14:31:21.910Z,0.60
2022-12-04T14:33:52.255Z,0.70
2022-12-04T14:36:24.417Z,0.70
2022-12-04T14:38:56.649Z,0.70
2022-12-04T14:41:24.273Z,0.50
2022-12-04T14:43:51.002Z,0.40
2022-12-04T14:46:24.601Z,0.30
2022-12-04T14:49:27.102Z,0.30
2022-12-04T14:52:04.783Z,0.30
2022-12-04T14:54:31.404Z,0.40
2022-12-04T14:57:21.042Z,0.30
2022-12-04T14:59:48.935Z,0.30
2022-12-04T15:02:35.828Z,0.40
2022-12-04T15:05:02.809Z,0.50
2022-12-04T15:07:31.289Z,0.50
2022-12-04T15:10:18.339Z,0.50
2022-12-04T15:12:49.531Z,0.50
2022-12-04T15:15:24.754Z,0.40
2022-12-04T15:18:02.118Z,0.50
2022-12-04T15:20:35.967Z,0.30
2022-12-04T15:23:05.425Z,0.20
2022-12-04T15:25:40.651Z,0.30
2022-12-04T15:28:30.530Z,0.30
2022-12-04T15:30:58.635Z,0.30
2022-12-04T15:33:30.470Z,0.40
2022-12-04T15:35:59.760Z,0.30
2022-12-04T15:38:26.587Z,0.40
2022-12-04T15:40:58.778Z,0.50
2022-12-04T15:43:30.336Z,0.50
2022-12-04T15:45:57.280Z,0.50
2022-12-04T15:48:30.711Z,0.50
2022-12-04T15:50:58.684Z,0.40
2022-12-04T15:53:27.673Z,0.50
2022-12-04T15:55:56.267Z,0.60
2022-12-04T15:58:26.737Z,0.60
2022-12-04T16:01:01.067Z,0.70
2022-12-04T16:03:32.910Z,0.70
2022-12-04T16:06:18.226Z,0.70
2022-12-04T16:08:46.480Z,0.80
2022-12-04T16:11:20.187Z,0.80
2022-12-04T16:13:48.024Z,0.80
2022-12-04T16:16:16.176Z,0.80
2022-12-04T16:18:43.477Z,0.70
2022-12-04T16:21:17.318Z,0.70
2022-12-04T16:23:44.325Z,0.70
2022-12-04T16:26:14.683Z,0.70
2022-12-04T16:28:41.697Z,0.70
2022-12-04T16:31:12.507Z,0.60
2022-12-04T16:33:39.574Z,0.50
2022-12-04T16:36:06.775Z,0.50
2022-12-04T16:38:33.364Z,0.50
2022-12-04T16:40:59.976Z,0.50
2022-12-04T16:43:26.572Z,0.50
2022-12-04T16:45:53.856Z,0.70
2022-12-04T16:48:20.906Z,0.70
2022-12-04T16:50:47.670Z,0.70
2022-12-04T16:53:19.087Z,0.80
2022-12-04T16:55:47.280Z,0.80
2022-12-04T16:58:14.304Z,0.80
2022-12-04T17:00:43.582Z,0.80
2022-12-04T17:03:18.007Z,0.80
2022-12-04T17:05:44.667Z,0.80
2022-12-04T17:08:11.420Z,0.80
2022-12-04T17:10:38.212Z,0.80
2022-12-04T17:13:04.803Z,0.80
2022-12-04T17:15:31.405Z,0.70
2022-12-04T17:17:58.033Z,0.60
2022-12-04T17:20:24.691Z,0.60
2022-12-04T17:22:51.352Z,0.60
2022-12-04T17:25:18.056Z,0.60
2022-12-04T17:27:45.108Z,0.60
2022-12-04T17:30:12.114Z,0.70
2022-12-04T17:32:38.728Z,0.80
2022-12-04T17:35:06.063Z,0.90
2022-12-04T17:37:33.193Z,0.80
2022-12-04T17:39:59.783Z,0.70
2022-12-04T17:42:26.760Z,0.70
2022-12-04T17:44:53.564Z,0.60
2022-12-04T17:47:20.601Z,0.60
2022-12-04T17:49:47.216Z,0.60
2022-12-04T17:52:13.902Z,0.60
2022-12-04T17:54:40.569Z,0.70
2022-12-04T17:57:07.290Z,0.70
2022-12-04T17:59:33.934Z,0.70
2022-12-04T18:02:00.538Z,0.70
2022-12-04T18:04:27.161Z,0.70
2022-12-04T18:06:55.300Z,0.80
2022-12-04T18:09:21.915Z,0.90
2022-12-04T18:11:48.580Z,0.80
2022-12-04T18:14:16.778Z,0.80
2022-12-04T18:16:44.889Z,0.80
2022-12-04T18:19:12.126Z,0.90
2022-12-04T18:21:38.903Z,0.90
2022-12-04T18:24:05.761Z,0.90
2022-12-04T18:26:34.528Z,0.90
2022-12-04T18:29:01.259Z,0.90
2022-12-04T18:31:27.986Z,0.90
2022-12-04T18:33:54.645Z,0.90
2022-12-04T18:36:22.439Z,0.90
2022-12-04T18:38:56.451Z,0.90
2022-12-04T18:41:23.446Z,0.90
2022-12-04T18:43:50.187Z,0.80
2022-12-04T18:46:17.384Z,0.80
2022-12-04T18:48:45.069Z,0.80
2022-12-04T18:51:16.206Z,0.70
2022-12-04T18:53:43.297Z,0.70
2022-12-04T18:56:09.951Z,0.70
2022-12-04T18:58:36.581Z,0.80
2022-12-04T19:01:06.689Z,0.80
2022-12-04T19:03:33.871Z,0.80
2022-12-04T19:06:00.871Z,0.80
2022-12-04T19:08:32.946Z,0.70
2022-12-04T19:11:06.697Z,0.60
2022-12-04T19:13:33.493Z,0.60
2022-12-04T19:16:00.114Z,0.50
2022-12-04T19:18:26.830Z,0.50
2022-12-04T19:20:53.532Z,0.50
2022-12-04T19:23:20.151Z,0.50
2022-12-04T19:25:53.945Z,0.50
2022-12-04T19:28:20.551Z,0.40
2022-12-04T19:30:47.167Z,0.40
2022-12-04T19:33:13.832Z,0.40
2022-12-04T19:35:40.537Z,0.40
2022-12-04T19:38:07.136Z,0.40
2022-12-04T19:40:33.749Z,0.40
2022-12-04T19:43:02.965Z,0.40
2022-12-04T19:45:29.982Z,0.50
2022-12-04T19:47:56.692Z,0.50
2022-12-04T19:50:23.325Z,0.50
2022-12-04T19:52:49.939Z,0.40
2022-12-04T19:55:16.557Z,0.40
2022-12-04T19:57:43.162Z,0.50
2022-12-04T20:00:09.991Z,0.50
2022-12-04T20:02:39.724Z,0.50
2022-12-04T20:05:06.495Z,0.60
2022-12-04T20:07:33.137Z,0.60
2022-12-04T20:10:00.254Z,0.70
2022-12-04T20:12:27.096Z,0.70
2022-12-04T20:14:53.864Z,0.60
2022-12-04T20:17:20.463Z,0.60
2022-12-04T20:19:47.105Z,0.50
2022-12-04T20:22:13.681Z,0.50
2022-12-04T20:24:40.357Z,0.40
2022-12-04T20:27:07.013Z,0.50
2022-12-04T20:29:33.691Z,0.50
2022-12-04T20:32:00.355Z,0.40
2022-12-04T20:34:26.944Z,0.50
2022-12-04T20:36:53.552Z,0.50
2022-12-04T20:39:20.820Z,0.50
2022-12-04T20:41:47.636Z,0.60
2022-12-04T20:44:15.463Z,0.60
2022-12-04T20:46:42.650Z,0.60
2022-12-04T20:49:20.587Z,0.60
2022-12-04T20:51:48.585Z,0.60
2022-12-04T20:54:18.016Z,0.60
2022-12-04T20:56:45.046Z,0.60
2022-12-04T20:59:13.006Z,0.60
2022-12-04T21:01:40.258Z,0.70
2022-12-04T21:04:07.532Z,0.70
2022-12-04T21:06:35.999Z,0.60
2022-12-04T21:09:11.697Z,0.70
2022-12-04T21:11:39.482Z,0.70
2022-12-04T21:14:25.851Z,0.70
2022-12-04T21:16:52.508Z,0.70
2022-12-04T21:19:20.479Z,0.70
2022-12-04T21:21:47.160Z,0.70
2022-12-04T21:24:14.943Z,0.70
2022-12-04T21:26:41.544Z,0.70
2022-12-04T21:29:08.425Z,0.60
2022-12-04T21:31:36.120Z,0.60
2022-12-04T21:34:03.779Z,0.70
2022-12-04T21:36:30.415Z,0.70
2022-12-04T21:38:57.251Z,0.60
2022-12-04T21:41:42.400Z,0.60
2022-12-04T21:44:10.359Z,0.60
2022-12-04T21:46:37.181Z,0.70
2022-12-04T21:49:03.871Z,0.70
2022-12-04T21:51:56.326Z,0.60
2022-12-04T21:54:17.299Z,0.50
2022-12-04T21:56:44.118Z,0.50
2022-12-04T21:59:11.138Z,0.60
2022-12-04T22:01:38.191Z,0.50
2022-12-04T22:04:04.867Z,0.50
2022-12-04T22:06:36.020Z,0.50
2022-12-04T22:09:03.828Z,0.40
2022-12-04T22:11:30.436Z,0.40
2022-12-04T22:13:57.156Z,0.50
2022-12-04T22:16:30.304Z,0.50
2022-12-04T22:18:58.296Z,0.50
2022-12-04T22:21:25.549Z,0.50
2022-12-04T22:23:59.406Z,0.60
2022-12-04T22:26:27.475Z,0.60
2022-12-04T22:28:54.436Z,0.60
2022-12-04T22:31:22.012Z,0.50
2022-12-04T22:33:49.591Z,0.50
2022-12-04T22:36:17.630Z,0.50
2022-12-04T22:39:06.010Z,0.50
2022-12-04T22:41:31.442Z,0.50
2022-12-04T22:43:58.077Z,0.50
2022-12-04T22:46:24.732Z,0.50
2022-12-04T22:48:53.694Z,0.60
2022-12-04T22:51:21.123Z,0.60
2022-12-04T22:53:51.662Z,0.70
2022-12-04T22:56:21.335Z,0.70
2022-12-04T22:58:48.052Z,0.80
2022-12-04T23:01:18.968Z,0.80
2022-12-04T23:03:46.110Z,0.80
2022-12-04T23:06:13.555Z,0.80
2022-12-04T23:08:40.741Z,0.60
2022-12-04T23:11:15.327Z,0.50
2022-12-04T23:13:42.024Z,0.50
2022-12-04T23:16:10.089Z,0.30
2022-12-04T23:18:37.711Z,0.20
2022-12-04T23:21:05.631Z,0.20
2022-12-04T23:23:33.461Z,0.30
2022-12-04T23:26:07.312Z,0.30
2022-12-04T23:28:34.111Z,0.20
2022-12-04T23:31:01.195Z,0.20
2022-12-04T23:33:28.042Z,0.10
2022-12-04T23:35:55.880Z,0.10
2022-12-04T23:38:22.806Z,0.00
2022-12-04T23:40:49.702Z,0.10
2022-12-04T23:43:16.854Z,0.20
2022-12-04T23:45:44.001Z,0.20
2022-12-04T23:48:10.746Z,0.20
2022-12-04T23:50:37.347Z,0.30
2022-12-04T23:53:03.960Z,0.30
2022-12-04T23:55:34.179Z,0.30
2022-12-04T23:58:01.683Z,0.40
